sensor_id;sensor_type;location;lat;lon;timestamp;P1;P2;P0
65574;PMS5003;52216;54.942;73.394;2023-05-24T00:02:24;17.00;16.50;8.50
65574;PMS5003;52216;54.942;73.394;2023-05-24T00:05:28;20.60;20.00;10.80
65574;PMS5003;52216;54.942;73.394;2023-05-24T00:08:33;21.00;21.00;11.60
65574;PMS5003;52216;54.942;73.394;2023-05-24T00:11:35;22.75;20.75;9.00
65574;PMS5003;52216;54.942;73.394;2023-05-24T00:14:39;22.75;20.75;11.25
65574;PMS5003;52216;54.942;73.394;2023-05-24T00:17:42;23.00;22.00;12.00
65574;PMS5003;52216;54.942;73.394;2023-05-24T00:20:44;22.00;21.00;13.00
65574;PMS5003;52216;54.942;73.394;2023-05-24T00:23:46;22.50;20.50;13.00
65574;PMS5003;52216;54.942;73.394;2023-05-24T00:26:48;22.00;20.00;12.00
65574;PMS5003;52216;54.942;73.394;2023-05-24T00:29:51;24.00;22.00;11.00
65574;PMS5003;52216;54.942;73.394;2023-05-24T00:32:55;24.00;23.00;12.00
65574;PMS5003;52216;54.942;73.394;2023-05-24T00:35:59;21.00;20.00;10.00
65574;PMS5003;52216;54.942;73.394;2023-05-24T00:39:01;22.60;21.40;11.20
65574;PMS5003;52216;54.942;73.394;2023-05-24T00:42:06;22.00;21.40;12.00
65574;PMS5003;52216;54.942;73.394;2023-05-24T00:45:09;22.75;22.00;15.00
65574;PMS5003;52216;54.942;73.394;2023-05-24T00:48:12;22.00;21.20;14.00
65574;PMS5003;52216;54.942;73.394;2023-05-24T00:51:15;20.50;19.25;13.00
65574;PMS5003;52216;54.942;73.394;2023-05-24T00:54:19;20.00;19.00;10.80
65574;PMS5003;52216;54.942;73.394;2023-05-24T00:57:22;20.67;18.00;9.00
65574;PMS5003;52216;54.942;73.394;2023-05-24T01:00:26;19.00;16.00;7.00
65574;PMS5003;52216;54.942;73.394;2023-05-24T01:03:28;16.75;16.00;5.00
65574;PMS5003;52216;54.942;73.394;2023-05-24T01:06:32;12.00;11.75;5.00
65574;PMS5003;52216;54.942;73.394;2023-05-24T01:09:48;12.75;12.00;5.25
65574;PMS5003;52216;54.942;73.394;2023-05-24T01:13:00;9.25;9.00;5.00
65574;PMS5003;52216;54.942;73.394;2023-05-24T01:16:09;12.75;12.50;5.00
65574;PMS5003;52216;54.942;73.394;2023-05-24T01:23:24;17.00;14.00;6.00
65574;PMS5003;52216;54.942;73.394;2023-05-24T01:26:13;15.00;10.00;5.00
65574;PMS5003;52216;54.942;73.394;2023-05-24T01:29:19;14.00;8.00;4.00
65574;PMS5003;52216;54.942;73.394;2023-05-24T01:32:21;9.50;6.75;2.00
65574;PMS5003;52216;54.942;73.394;2023-05-24T01:35:23;6.00;4.25;1.00
65574;PMS5003;52216;54.942;73.394;2023-05-24T01:38:25;5.00;5.00;2.00
65574;PMS5003;52216;54.942;73.394;2023-05-24T01:41:33;5.00;5.00;2.00
65574;PMS5003;52216;54.942;73.394;2023-05-24T01:44:38;6.00;6.00;2.00
65574;PMS5003;52216;54.942;73.394;2023-05-24T01:48:23;8.00;7.00;3.00
65574;PMS5003;52216;54.942;73.394;2023-05-24T01:51:33;12.00;10.25;5.50
65574;PMS5003;52216;54.942;73.394;2023-05-24T01:54:41;10.50;10.50;4.50
65574;PMS5003;52216;54.942;73.394;2023-05-24T01:57:45;12.75;7.00;3.00
65574;PMS5003;52216;54.942;73.394;2023-05-24T02:00:49;9.25;7.25;3.00
65574;PMS5003;52216;54.942;73.394;2023-05-24T02:03:55;8.00;7.00;3.00
65574;PMS5003;52216;54.942;73.394;2023-05-24T02:06:58;6.00;6.00;3.00
65574;PMS5003;52216;54.942;73.394;2023-05-24T02:10:02;7.00;7.00;3.00
65574;PMS5003;52216;54.942;73.394;2023-05-24T02:13:08;6.00;6.00;2.00
65574;PMS5003;52216;54.942;73.394;2023-05-24T02:16:11;5.50;5.50;3.00
65574;PMS5003;52216;54.942;73.394;2023-05-24T02:19:14;5.50;5.50;2.00
65574;PMS5003;52216;54.942;73.394;2023-05-24T02:22:19;7.00;7.00;2.00
65574;PMS5003;52216;54.942;73.394;2023-05-24T02:25:23;7.00;7.00;3.00
65574;PMS5003;52216;54.942;73.394;2023-05-24T02:28:25;6.00;6.00;2.00
65574;PMS5003;52216;54.942;73.394;2023-05-24T02:31:27;4.25;4.25;2.00
65574;PMS5003;52216;54.942;73.394;2023-05-24T02:34:31;5.25;5.00;3.00
65574;PMS5003;52216;54.942;73.394;2023-05-24T02:37:33;7.00;6.00;2.00
65574;PMS5003;52216;54.942;73.394;2023-05-24T02:40:35;8.00;7.00;4.00
65574;PMS5003;52216;54.942;73.394;2023-05-24T02:43:38;6.00;5.00;3.00
65574;PMS5003;52216;54.942;73.394;2023-05-24T02:46:40;6.00;6.00;2.00
65574;PMS5003;52216;54.942;73.394;2023-05-24T02:49:42;5.00;5.00;2.00
65574;PMS5003;52216;54.942;73.394;2023-05-24T02:52:44;5.00;4.00;2.00
65574;PMS5003;52216;54.942;73.394;2023-05-24T02:55:47;4.50;3.50;1.00
65574;PMS5003;52216;54.942;73.394;2023-05-24T02:58:51;6.75;6.00;0.00
65574;PMS5003;52216;54.942;73.394;2023-05-24T03:01:56;7.00;5.00;2.00
65574;PMS5003;52216;54.942;73.394;2023-05-24T03:05:10;6.00;5.00;2.50
65574;PMS5003;52216;54.942;73.394;2023-05-24T03:08:13;7.00;6.00;2.00
65574;PMS5003;52216;54.942;73.394;2023-05-24T03:11:16;4.67;4.67;2.00
65574;PMS5003;52216;54.942;73.394;2023-05-24T03:14:22;4.50;4.50;2.50
65574;PMS5003;52216;54.942;73.394;2023-05-24T03:17:27;4.00;4.00;1.00
65574;PMS5003;52216;54.942;73.394;2023-05-24T03:20:28;4.25;3.50;0.00
65574;PMS5003;52216;54.942;73.394;2023-05-24T03:23:33;4.00;4.00;0.00
65574;PMS5003;52216;54.942;73.394;2023-05-24T03:26:36;3.33;3.33;0.00
65574;PMS5003;52216;54.942;73.394;2023-05-24T03:29:38;4.50;4.50;0.50
65574;PMS5003;52216;54.942;73.394;2023-05-24T03:32:40;4.50;3.50;0.50
65574;PMS5003;52216;54.942;73.394;2023-05-24T03:35:43;3.67;3.67;0.33
65574;PMS5003;52216;54.942;73.394;2023-05-24T03:38:47;4.00;3.00;0.00
65574;PMS5003;52216;54.942;73.394;2023-05-24T03:41:50;3.00;3.00;0.00
65574;PMS5003;52216;54.942;73.394;2023-05-24T03:44:54;2.00;2.00;0.00
65574;PMS5003;52216;54.942;73.394;2023-05-24T03:47:57;1.00;1.00;0.00
65574;PMS5003;52216;54.942;73.394;2023-05-24T03:51:00;0.25;0.25;0.00
65574;PMS5003;52216;54.942;73.394;2023-05-24T03:54:03;0.00;0.00;0.00
65574;PMS5003;52216;54.942;73.394;2023-05-24T03:57:07;0.00;0.00;0.00
65574;PMS5003;52216;54.942;73.394;2023-05-24T04:00:12;1.00;0.00;0.00
65574;PMS5003;52216;54.942;73.394;2023-05-24T04:03:21;0.00;0.00;0.00
65574;PMS5003;52216;54.942;73.394;2023-05-24T04:06:28;0.00;0.00;0.00
65574;PMS5003;52216;54.942;73.394;2023-05-24T04:09:34;0.00;0.00;0.00
65574;PMS5003;52216;54.942;73.394;2023-05-24T04:12:37;0.00;0.00;0.00
65574;PMS5003;52216;54.942;73.394;2023-05-24T04:15:41;0.00;0.00;0.00
65574;PMS5003;52216;54.942;73.394;2023-05-24T04:18:46;0.00;0.00;0.00
65574;PMS5003;52216;54.942;73.394;2023-05-24T04:21:49;0.00;0.00;0.00
65574;PMS5003;52216;54.942;73.394;2023-05-24T04:24:55;0.00;0.00;0.00
65574;PMS5003;52216;54.942;73.394;2023-05-24T04:27:59;0.00;0.00;0.00
65574;PMS5003;52216;54.942;73.394;2023-05-24T04:31:07;0.00;0.00;0.00
65574;PMS5003;52216;54.942;73.394;2023-05-24T04:34:12;0.00;0.00;0.00
65574;PMS5003;52216;54.942;73.394;2023-05-24T04:37:16;0.00;0.00;0.00
65574;PMS5003;52216;54.942;73.394;2023-05-24T04:40:21;0.00;0.00;0.00
65574;PMS5003;52216;54.942;73.394;2023-05-24T04:43:24;0.00;0.00;0.00
65574;PMS5003;52216;54.942;73.394;2023-05-24T04:46:31;0.00;0.00;0.00
65574;PMS5003;52216;54.942;73.394;2023-05-24T04:49:37;1.50;0.00;0.00
65574;PMS5003;52216;54.942;73.394;2023-05-24T04:52:43;0.00;0.00;0.00
65574;PMS5003;52216;54.942;73.394;2023-05-24T04:55:47;0.00;0.00;0.00
65574;PMS5003;52216;54.942;73.394;2023-05-24T04:58:49;0.00;0.00;0.00
65574;PMS5003;52216;54.942;73.394;2023-05-24T05:01:54;0.00;0.00;0.00
65574;PMS5003;52216;54.942;73.394;2023-05-24T05:04:57;0.00;0.00;0.00
65574;PMS5003;52216;54.942;73.394;2023-05-24T05:08:00;2.00;1.00;0.00
65574;PMS5003;52216;54.942;73.394;2023-05-24T05:11:04;0.00;0.00;0.00
65574;PMS5003;52216;54.942;73.394;2023-05-24T05:14:08;0.00;0.00;0.00
65574;PMS5003;52216;54.942;73.394;2023-05-24T05:17:11;1.00;0.00;0.00
65574;PMS5003;52216;54.942;73.394;2023-05-24T05:20:15;0.00;0.00;0.00
65574;PMS5003;52216;54.942;73.394;2023-05-24T05:23:18;0.00;0.00;0.00
65574;PMS5003;52216;54.942;73.394;2023-05-24T05:26:25;0.50;0.00;0.00
65574;PMS5003;52216;54.942;73.394;2023-05-24T05:29:28;0.00;0.00;0.00
65574;PMS5003;52216;54.942;73.394;2023-05-24T05:32:32;0.00;0.00;0.00
65574;PMS5003;52216;54.942;73.394;2023-05-24T05:35:35;0.00;0.00;0.00
65574;PMS5003;52216;54.942;73.394;2023-05-24T05:38:38;0.00;0.00;0.00
65574;PMS5003;52216;54.942;73.394;2023-05-24T05:41:42;0.00;0.00;0.00
65574;PMS5003;52216;54.942;73.394;2023-05-24T05:44:49;0.00;0.00;0.00
65574;PMS5003;52216;54.942;73.394;2023-05-24T05:47:51;0.00;0.00;0.00
65574;PMS5003;52216;54.942;73.394;2023-05-24T05:50:53;0.00;0.00;0.00
65574;PMS5003;52216;54.942;73.394;2023-05-24T05:53:56;0.00;0.00;0.00
65574;PMS5003;52216;54.942;73.394;2023-05-24T05:56:58;0.00;0.00;0.00
65574;PMS5003;52216;54.942;73.394;2023-05-24T06:00:02;0.00;0.00;0.00
65574;PMS5003;52216;54.942;73.394;2023-05-24T06:03:15;0.00;0.00;0.00
65574;PMS5003;52216;54.942;73.394;2023-05-24T06:06:19;0.00;0.00;0.00
65574;PMS5003;52216;54.942;73.394;2023-05-24T06:09:22;0.00;0.00;0.00
65574;PMS5003;52216;54.942;73.394;2023-05-24T06:12:25;0.00;0.00;0.00
65574;PMS5003;52216;54.942;73.394;2023-05-24T06:15:28;0.00;0.00;0.00
65574;PMS5003;52216;54.942;73.394;2023-05-24T06:18:31;0.00;0.00;0.00
65574;PMS5003;52216;54.942;73.394;2023-05-24T06:21:33;0.00;0.00;0.00
65574;PMS5003;52216;54.942;73.394;2023-05-24T06:24:38;0.00;0.00;0.00
65574;PMS5003;52216;54.942;73.394;2023-05-24T06:27:40;0.00;0.00;0.00
65574;PMS5003;52216;54.942;73.394;2023-05-24T06:30:45;0.00;0.00;0.00
65574;PMS5003;52216;54.942;73.394;2023-05-24T06:34:01;0.00;0.00;0.00
65574;PMS5003;52216;54.942;73.394;2023-05-24T06:37:07;0.00;0.00;0.00
65574;PMS5003;52216;54.942;73.394;2023-05-24T06:40:11;0.00;0.00;0.00
65574;PMS5003;52216;54.942;73.394;2023-05-24T06:43:13;0.00;0.00;0.00
65574;PMS5003;52216;54.942;73.394;2023-05-24T06:46:15;0.00;0.00;0.00
65574;PMS5003;52216;54.942;73.394;2023-05-24T06:49:18;0.00;0.00;0.00
65574;PMS5003;52216;54.942;73.394;2023-05-24T06:52:20;0.00;0.00;0.00
65574;PMS5003;52216;54.942;73.394;2023-05-24T06:55:27;0.00;0.00;0.00
65574;PMS5003;52216;54.942;73.394;2023-05-24T06:58:31;0.00;0.00;0.00
65574;PMS5003;52216;54.942;73.394;2023-05-24T07:01:35;1.00;1.00;0.00
65574;PMS5003;52216;54.942;73.394;2023-05-24T07:04:40;0.33;0.00;0.00
65574;PMS5003;52216;54.942;73.394;2023-05-24T07:07:43;0.00;0.00;0.00
65574;PMS5003;52216;54.942;73.394;2023-05-24T07:10:48;0.00;0.00;0.00
65574;PMS5003;52216;54.942;73.394;2023-05-24T07:13:51;0.00;0.00;0.00
65574;PMS5003;52216;54.942;73.394;2023-05-24T07:16:53;0.00;0.00;0.00
65574;PMS5003;52216;54.942;73.394;2023-05-24T07:20:04;1.00;1.00;0.00
65574;PMS5003;52216;54.942;73.394;2023-05-24T07:23:13;0.00;0.00;0.00
65574;PMS5003;52216;54.942;73.394;2023-05-24T07:26:17;0.00;0.00;0.00
65574;PMS5003;52216;54.942;73.394;2023-05-24T07:29:21;0.00;0.00;0.00
65574;PMS5003;52216;54.942;73.394;2023-05-24T07:32:24;0.00;0.00;0.00
65574;PMS5003;52216;54.942;73.394;2023-05-24T07:35:26;0.00;0.00;0.00
65574;PMS5003;52216;54.942;73.394;2023-05-24T07:38:30;0.00;0.00;0.00
65574;PMS5003;52216;54.942;73.394;2023-05-24T07:41:33;0.00;0.00;0.00
65574;PMS5003;52216;54.942;73.394;2023-05-24T07:44:35;0.00;0.00;0.00
65574;PMS5003;52216;54.942;73.394;2023-05-24T07:47:38;0.00;0.00;0.00
65574;PMS5003;52216;54.942;73.394;2023-05-24T07:50:41;0.00;0.00;0.00
65574;PMS5003;52216;54.942;73.394;2023-05-24T07:53:44;0.00;0.00;0.00
65574;PMS5003;52216;54.942;73.394;2023-05-24T07:56:47;0.00;0.00;0.00
65574;PMS5003;52216;54.942;73.394;2023-05-24T07:59:49;0.00;0.00;0.00
65574;PMS5003;52216;54.942;73.394;2023-05-24T08:02:52;0.00;0.00;0.00
65574;PMS5003;52216;54.942;73.394;2023-05-24T08:06:34;0.00;0.00;0.00
65574;PMS5003;52216;54.942;73.394;2023-05-24T08:09:37;0.00;0.00;0.00
65574;PMS5003;52216;54.942;73.394;2023-05-24T08:12:40;1.00;1.00;0.00
65574;PMS5003;52216;54.942;73.394;2023-05-24T08:15:44;0.00;0.00;0.00
65574;PMS5003;52216;54.942;73.394;2023-05-24T08:18:47;0.00;0.00;0.00
65574;PMS5003;52216;54.942;73.394;2023-05-24T08:21:49;0.00;0.00;0.00
65574;PMS5003;52216;54.942;73.394;2023-05-24T08:24:52;1.00;0.00;0.00
65574;PMS5003;52216;54.942;73.394;2023-05-24T08:27:54;1.00;0.00;0.00
65574;PMS5003;52216;54.942;73.394;2023-05-24T08:30:58;0.00;0.00;0.00
65574;PMS5003;52216;54.942;73.394;2023-05-24T08:34:00;1.00;1.00;0.00
65574;PMS5003;52216;54.942;73.394;2023-05-24T08:37:03;0.00;0.00;0.00
65574;PMS5003;52216;54.942;73.394;2023-05-24T08:40:09;0.00;0.00;0.00
65574;PMS5003;52216;54.942;73.394;2023-05-24T08:43:13;0.00;0.00;0.00
65574;PMS5003;52216;54.942;73.394;2023-05-24T08:46:16;0.00;0.00;0.00
65574;PMS5003;52216;54.942;73.394;2023-05-24T08:49:18;0.00;0.00;0.00
65574;PMS5003;52216;54.942;73.394;2023-05-24T08:52:20;0.00;0.00;0.00
65574;PMS5003;52216;54.942;73.394;2023-05-24T08:55:24;0.25;0.00;0.00
65574;PMS5003;52216;54.942;73.394;2023-05-24T08:58:27;0.00;0.00;0.00
65574;PMS5003;52216;54.942;73.394;2023-05-24T09:01:32;1.25;0.00;0.00
65574;PMS5003;52216;54.942;73.394;2023-05-24T09:04:38;0.00;0.00;0.00
65574;PMS5003;52216;54.942;73.394;2023-05-24T09:07:44;0.00;0.00;0.00
65574;PMS5003;52216;54.942;73.394;2023-05-24T09:10:48;0.00;0.00;0.00
65574;PMS5003;52216;54.942;73.394;2023-05-24T09:13:51;0.00;0.00;0.00
65574;PMS5003;52216;54.942;73.394;2023-05-24T09:17:13;2.00;0.00;0.00
65574;PMS5003;52216;54.942;73.394;2023-05-24T09:20:19;1.25;0.25;0.00
65574;PMS5003;52216;54.942;73.394;2023-05-24T09:23:24;1.00;1.00;0.00
65574;PMS5003;52216;54.942;73.394;2023-05-24T09:26:36;0.00;0.00;0.00
65574;PMS5003;52216;54.942;73.394;2023-05-24T09:29:38;0.00;0.00;0.00
65574;PMS5003;52216;54.942;73.394;2023-05-24T09:32:42;0.00;0.00;0.00
65574;PMS5003;52216;54.942;73.394;2023-05-24T09:35:59;0.00;0.00;0.00
65574;PMS5003;52216;54.942;73.394;2023-05-24T09:39:06;0.00;0.00;0.00
65574;PMS5003;52216;54.942;73.394;2023-05-24T09:42:14;0.00;0.00;0.00
65574;PMS5003;52216;54.942;73.394;2023-05-24T09:45:19;2.00;1.25;0.00
65574;PMS5003;52216;54.942;73.394;2023-05-24T09:48:23;0.00;0.00;0.00
65574;PMS5003;52216;54.942;73.394;2023-05-24T09:51:29;1.00;0.00;0.00
65574;PMS5003;52216;54.942;73.394;2023-05-24T09:54:32;0.00;0.00;0.00
65574;PMS5003;52216;54.942;73.394;2023-05-24T09:57:36;0.00;0.00;0.00
65574;PMS5003;52216;54.942;73.394;2023-05-24T10:00:40;0.00;0.00;0.00
65574;PMS5003;52216;54.942;73.394;2023-05-24T10:03:53;1.00;0.00;0.00
65574;PMS5003;52216;54.942;73.394;2023-05-24T10:07:02;0.00;0.00;0.00
65574;PMS5003;52216;54.942;73.394;2023-05-24T10:10:06;0.00;0.00;0.00
65574;PMS5003;52216;54.942;73.394;2023-05-24T10:13:11;0.00;0.00;0.00
65574;PMS5003;52216;54.942;73.394;2023-05-24T10:16:18;0.00;0.00;0.00
65574;PMS5003;52216;54.942;73.394;2023-05-24T10:19:21;0.00;0.00;0.00
65574;PMS5003;52216;54.942;73.394;2023-05-24T10:22:26;0.00;0.00;0.00
65574;PMS5003;52216;54.942;73.394;2023-05-24T10:25:28;0.00;0.00;0.00
65574;PMS5003;52216;54.942;73.394;2023-05-24T10:28:35;0.00;0.00;0.00
65574;PMS5003;52216;54.942;73.394;2023-05-24T10:31:39;0.00;0.00;0.00
65574;PMS5003;52216;54.942;73.394;2023-05-24T10:34:43;0.00;0.00;0.00
65574;PMS5003;52216;54.942;73.394;2023-05-24T10:37:47;0.00;0.00;0.00
65574;PMS5003;52216;54.942;73.394;2023-05-24T10:40:51;1.00;0.00;0.00
65574;PMS5003;52216;54.942;73.394;2023-05-24T10:43:55;1.00;0.00;0.00
65574;PMS5003;52216;54.942;73.394;2023-05-24T10:50:18;2.00;1.00;0.00
65574;PMS5003;52216;54.942;73.394;2023-05-24T10:53:25;1.50;1.00;0.00
65574;PMS5003;52216;54.942;73.394;2023-05-24T10:56:30;1.00;1.00;0.00
65574;PMS5003;52216;54.942;73.394;2023-05-24T10:59:34;1.25;0.00;0.00
65574;PMS5003;52216;54.942;73.394;2023-05-24T11:03:07;1.00;0.67;0.00
65574;PMS5003;52216;54.942;73.394;2023-05-24T11:06:11;0.00;0.00;0.00
65574;PMS5003;52216;54.942;73.394;2023-05-24T11:09:13;1.00;1.00;0.00
65574;PMS5003;52216;54.942;73.394;2023-05-24T11:12:16;1.00;0.00;0.00
65574;PMS5003;52216;54.942;73.394;2023-05-24T11:15:22;0.00;0.00;0.00
65574;PMS5003;52216;54.942;73.394;2023-05-24T11:18:27;0.00;0.00;0.00
65574;PMS5003;52216;54.942;73.394;2023-05-24T11:21:30;0.00;0.00;0.00
65574;PMS5003;52216;54.942;73.394;2023-05-24T11:24:36;0.00;0.00;0.00
65574;PMS5003;52216;54.942;73.394;2023-05-24T11:27:42;0.00;0.00;0.00
65574;PMS5003;52216;54.942;73.394;2023-05-24T11:30:46;1.00;1.00;0.00
65574;PMS5003;52216;54.942;73.394;2023-05-24T11:33:50;0.00;0.00;0.00
65574;PMS5003;52216;54.942;73.394;2023-05-24T11:36:52;0.00;0.00;0.00
65574;PMS5003;52216;54.942;73.394;2023-05-24T11:39:57;0.00;0.00;0.00
65574;PMS5003;52216;54.942;73.394;2023-05-24T11:43:00;0.00;0.00;0.00
65574;PMS5003;52216;54.942;73.394;2023-05-24T11:46:03;0.00;0.00;0.00
65574;PMS5003;52216;54.942;73.394;2023-05-24T11:49:10;0.00;0.00;0.00
65574;PMS5003;52216;54.942;73.394;2023-05-24T11:52:14;0.00;0.00;0.00
65574;PMS5003;52216;54.942;73.394;2023-05-24T11:55:23;1.00;0.00;0.00
65574;PMS5003;52216;54.942;73.394;2023-05-24T11:58:41;0.00;0.00;0.00
65574;PMS5003;52216;54.942;73.394;2023-05-24T12:01:47;0.00;0.00;0.00
65574;PMS5003;52216;54.942;73.394;2023-05-24T12:04:53;0.25;0.25;0.00
65574;PMS5003;52216;54.942;73.394;2023-05-24T12:08:14;4.00;4.00;2.00
65574;PMS5003;52216;54.942;73.394;2023-05-24T12:11:16;1.00;1.00;0.00
65574;PMS5003;52216;54.942;73.394;2023-05-24T12:14:23;0.00;0.00;0.00
65574;PMS5003;52216;54.942;73.394;2023-05-24T12:17:33;0.00;0.00;0.00
65574;PMS5003;52216;54.942;73.394;2023-05-24T12:20:36;0.00;0.00;0.00
65574;PMS5003;52216;54.942;73.394;2023-05-24T12:23:40;0.75;0.00;0.00
65574;PMS5003;52216;54.942;73.394;2023-05-24T12:26:45;1.00;1.00;0.00
65574;PMS5003;52216;54.942;73.394;2023-05-24T12:29:47;1.00;1.00;0.00
65574;PMS5003;52216;54.942;73.394;2023-05-24T12:32:51;0.00;0.00;0.00
65574;PMS5003;52216;54.942;73.394;2023-05-24T12:35:56;1.00;1.00;0.00
65574;PMS5003;52216;54.942;73.394;2023-05-24T12:39:16;0.00;0.00;0.00
65574;PMS5003;52216;54.942;73.394;2023-05-24T12:42:19;0.00;0.00;0.00
65574;PMS5003;52216;54.942;73.394;2023-05-24T12:45:31;0.00;0.00;0.00
65574;PMS5003;52216;54.942;73.394;2023-05-24T12:48:33;0.00;0.00;0.00
65574;PMS5003;52216;54.942;73.394;2023-05-24T12:51:37;0.00;0.00;0.00
65574;PMS5003;52216;54.942;73.394;2023-05-24T12:54:40;2.00;1.75;0.00
65574;PMS5003;52216;54.942;73.394;2023-05-24T12:57:44;1.00;1.00;0.00
65574;PMS5003;52216;54.942;73.394;2023-05-24T13:00:54;2.50;2.50;0.00
65574;PMS5003;52216;54.942;73.394;2023-05-24T13:03:58;3.00;2.00;0.00
65574;PMS5003;52216;54.942;73.394;2023-05-24T13:07:02;2.00;2.00;0.00
65574;PMS5003;52216;54.942;73.394;2023-05-24T13:10:05;1.00;1.00;0.00
65574;PMS5003;52216;54.942;73.394;2023-05-24T13:13:08;2.75;2.75;0.00
65574;PMS5003;52216;54.942;73.394;2023-05-24T13:16:13;0.00;0.00;0.00
65574;PMS5003;52216;54.942;73.394;2023-05-24T13:19:16;1.00;1.00;0.00
65574;PMS5003;52216;54.942;73.394;2023-05-24T13:22:20;1.00;1.00;0.00
65574;PMS5003;52216;54.942;73.394;2023-05-24T13:25:23;1.00;1.00;0.00
65574;PMS5003;52216;54.942;73.394;2023-05-24T13:28:28;3.00;3.00;0.00
65574;PMS5003;52216;54.942;73.394;2023-05-24T13:31:32;3.00;2.00;0.00
65574;PMS5003;52216;54.942;73.394;2023-05-24T13:34:35;4.00;3.00;0.00
65574;PMS5003;52216;54.942;73.394;2023-05-24T13:37:37;4.00;4.00;0.00
65574;PMS5003;52216;54.942;73.394;2023-05-24T13:40:40;3.00;3.00;0.00
65574;PMS5003;52216;54.942;73.394;2023-05-24T13:43:44;4.00;4.00;0.00
65574;PMS5003;52216;54.942;73.394;2023-05-24T13:46:47;4.00;4.00;0.00
65574;PMS5003;52216;54.942;73.394;2023-05-24T13:49:49;4.50;4.00;0.00
65574;PMS5003;52216;54.942;73.394;2023-05-24T13:52:52;3.00;3.00;0.00
65574;PMS5003;52216;54.942;73.394;2023-05-24T13:55:55;3.25;3.00;0.00
65574;PMS5003;52216;54.942;73.394;2023-05-24T13:58:59;3.00;3.00;0.00
65574;PMS5003;52216;54.942;73.394;2023-05-24T14:02:01;4.00;3.00;0.00
65574;PMS5003;52216;54.942;73.394;2023-05-24T14:05:04;4.00;4.00;1.00
65574;PMS5003;52216;54.942;73.394;2023-05-24T14:08:06;4.00;3.75;1.00
65574;PMS5003;52216;54.942;73.394;2023-05-24T14:11:09;3.50;3.25;1.00
65574;PMS5003;52216;54.942;73.394;2023-05-24T14:14:12;4.00;3.00;2.00
65574;PMS5003;52216;54.942;73.394;2023-05-24T14:17:14;4.00;4.00;1.67
65574;PMS5003;52216;54.942;73.394;2023-05-24T14:20:17;5.00;5.00;1.00
65574;PMS5003;52216;54.942;73.394;2023-05-24T14:23:19;3.00;3.00;1.00
65574;PMS5003;52216;54.942;73.394;2023-05-24T14:26:22;2.00;2.00;0.00
65574;PMS5003;52216;54.942;73.394;2023-05-24T14:29:50;3.00;3.00;0.00
65574;PMS5003;52216;54.942;73.394;2023-05-24T14:32:53;3.25;3.25;0.00
65574;PMS5003;52216;54.942;73.394;2023-05-24T14:35:56;4.00;4.00;0.00
65574;PMS5003;52216;54.942;73.394;2023-05-24T14:38:59;3.00;3.00;0.00
65574;PMS5003;52216;54.942;73.394;2023-05-24T14:42:01;4.50;4.50;1.00
65574;PMS5003;52216;54.942;73.394;2023-05-24T14:45:07;4.00;4.00;1.00
65574;PMS5003;52216;54.942;73.394;2023-05-24T14:48:10;4.00;4.00;1.00
65574;PMS5003;52216;54.942;73.394;2023-05-24T14:51:14;3.50;2.00;2.00
65574;PMS5003;52216;54.942;73.394;2023-05-24T14:54:48;4.00;3.00;3.00
65574;PMS5003;52216;54.942;73.394;2023-05-24T14:57:50;5.00;5.00;2.50
65574;PMS5003;52216;54.942;73.394;2023-05-24T15:00:56;4.00;4.00;2.00
65574;PMS5003;52216;54.942;73.394;2023-05-24T15:04:00;7.00;5.75;1.00
65574;PMS5003;52216;54.942;73.394;2023-05-24T15:07:02;7.00;7.00;1.00
65574;PMS5003;52216;54.942;73.394;2023-05-24T15:10:04;6.50;6.00;2.50
65574;PMS5003;52216;54.942;73.394;2023-05-24T15:13:07;6.50;6.25;4.00
65574;PMS5003;52216;54.942;73.394;2023-05-24T15:16:10;8.00;8.00;3.00
65574;PMS5003;52216;54.942;73.394;2023-05-24T15:19:12;9.00;9.00;4.00
65574;PMS5003;52216;54.942;73.394;2023-05-24T15:22:15;9.00;9.00;5.00
65574;PMS5003;52216;54.942;73.394;2023-05-24T15:25:19;8.00;8.00;5.00
65574;PMS5003;52216;54.942;73.394;2023-05-24T15:28:24;11.00;11.00;4.00
65574;PMS5003;52216;54.942;73.394;2023-05-24T15:31:28;12.75;12.25;5.00
65574;PMS5003;52216;54.942;73.394;2023-05-24T15:34:30;11.25;9.75;4.00
65574;PMS5003;52216;54.942;73.394;2023-05-24T15:37:33;11.33;10.00;4.00
65574;PMS5003;52216;54.942;73.394;2023-05-24T15:40:35;14.00;13.75;5.00
65574;PMS5003;52216;54.942;73.394;2023-05-24T15:43:39;12.50;11.25;4.00
65574;PMS5003;52216;54.942;73.394;2023-05-24T15:46:41;13.25;12.75;5.00
65574;PMS5003;52216;54.942;73.394;2023-05-24T15:49:46;12.00;10.00;4.50
65574;PMS5003;52216;54.942;73.394;2023-05-24T15:52:50;14.75;13.50;7.50
65574;PMS5003;52216;54.942;73.394;2023-05-24T15:55:53;16.00;15.00;8.00
65574;PMS5003;52216;54.942;73.394;2023-05-24T15:58:58;18.75;15.50;7.00
65574;PMS5003;52216;54.942;73.394;2023-05-24T16:02:00;18.00;16.25;8.00
65574;PMS5003;52216;54.942;73.394;2023-05-24T16:05:02;19.00;17.00;6.00
65574;PMS5003;52216;54.942;73.394;2023-05-24T16:08:08;20.20;18.80;9.40
65574;PMS5003;52216;54.942;73.394;2023-05-24T16:11:12;25.20;21.20;11.40
65574;PMS5003;52216;54.942;73.394;2023-05-24T16:14:15;22.20;21.00;14.00
65574;PMS5003;52216;54.942;73.394;2023-05-24T16:17:18;21.80;19.00;13.00
65574;PMS5003;52216;54.942;73.394;2023-05-24T16:20:20;24.00;20.75;11.00
65574;PMS5003;52216;54.942;73.394;2023-05-24T16:23:22;24.75;23.00;9.00
65574;PMS5003;52216;54.942;73.394;2023-05-24T16:26:26;27.60;24.60;13.60
65574;PMS5003;52216;54.942;73.394;2023-05-24T16:29:32;26.00;25.00;15.00
65574;PMS5003;52216;54.942;73.394;2023-05-24T16:32:35;32.00;28.75;17.50
65574;PMS5003;52216;54.942;73.394;2023-05-24T16:35:38;39.50;32.25;21.00
65574;PMS5003;52216;54.942;73.394;2023-05-24T16:38:41;37.75;33.00;21.00
65574;PMS5003;52216;54.942;73.394;2023-05-24T16:41:44;49.00;40.25;25.00
65574;PMS5003;52216;54.942;73.394;2023-05-24T16:44:46;53.50;43.50;29.50
65574;PMS5003;52216;54.942;73.394;2023-05-24T16:47:48;55.25;46.00;30.00
65574;PMS5003;52216;54.942;73.394;2023-05-24T16:50:50;56.00;45.50;28.25
65574;PMS5003;52216;54.942;73.394;2023-05-24T16:53:55;55.00;43.50;29.25
65574;PMS5003;52216;54.942;73.394;2023-05-24T16:56:57;56.25;45.00;29.50
65574;PMS5003;52216;54.942;73.394;2023-05-24T17:00:00;55.75;46.00;30.00
65574;PMS5003;52216;54.942;73.394;2023-05-24T17:03:02;57.00;45.50;30.50
65574;PMS5003;52216;54.942;73.394;2023-05-24T17:06:05;57.75;46.75;31.00
65574;PMS5003;52216;54.942;73.394;2023-05-24T17:09:07;61.00;49.25;32.50
65574;PMS5003;52216;54.942;73.394;2023-05-24T17:12:09;65.00;52.50;34.00
65574;PMS5003;52216;54.942;73.394;2023-05-24T17:15:11;66.75;54.00;35.00
65574;PMS5003;52216;54.942;73.394;2023-05-24T17:18:14;68.50;56.75;36.00
65574;PMS5003;52216;54.942;73.394;2023-05-24T17:21:16;64.25;51.75;34.00
65574;PMS5003;52216;54.942;73.394;2023-05-24T17:24:18;59.00;49.00;32.00
65574;PMS5003;52216;54.942;73.394;2023-05-24T17:27:20;59.75;48.50;32.00
65574;PMS5003;52216;54.942;73.394;2023-05-24T17:30:23;55.00;45.00;29.00
65574;PMS5003;52216;54.942;73.394;2023-05-24T17:33:27;54.25;44.00;29.00
65574;PMS5003;52216;54.942;73.394;2023-05-24T17:36:29;58.75;44.00;29.00
65574;PMS5003;52216;54.942;73.394;2023-05-24T17:39:34;53.00;42.00;27.00
65574;PMS5003;52216;54.942;73.394;2023-05-24T17:42:36;54.25;43.50;27.75
65574;PMS5003;52216;54.942;73.394;2023-05-24T17:45:38;53.00;43.00;28.75